createdAt,value
2019-01-26T00:00:29.062Z,-4.40
2019-01-26T00:10:21.712Z,-4.30
2019-01-26T00:15:18.220Z,-4.30
2019-01-26T00:17:46.628Z,-4.20
2019-01-26T00:20:15.042Z,-4.30
2019-01-26T00:22:43.450Z,-4.20
2019-01-26T00:25:11.868Z,-4.20
2019-01-26T00:27:40.271Z,-4.20
2019-01-26T00:30:14.521Z,-4.20
2019-01-26T00:32:42.917Z,-4.20
2019-01-26T00:35:11.664Z,-4.20
2019-01-26T00:37:40.061Z,-4.20
2019-01-26T00:40:11.316Z,-4.10
2019-01-26T00:42:39.733Z,-4.10
2019-01-26T00:45:11.140Z,-4.10
2019-01-26T00:47:39.547Z,-4.10
2019-01-26T00:52:37.608Z,-4.00
2019-01-26T00:55:08.188Z,-3.90
2019-01-26T01:02:56.578Z,-4.10
2019-01-26T01:07:53.129Z,-4.00
2019-01-26T01:10:21.762Z,-4.00
2019-01-26T01:12:50.276Z,-3.90
2019-01-26T01:17:48.304Z,-3.90
2019-01-26T01:20:17.468Z,-3.90
2019-01-26T01:22:45.869Z,-3.90
2019-01-26T01:25:14.712Z,-3.90
2019-01-26T01:27:43.116Z,-3.90
2019-01-26T01:30:14.609Z,-3.80
2019-01-26T01:32:43.175Z,-3.80
2019-01-26T01:35:13.321Z,-3.80
2019-01-26T01:38:01.081Z,-3.80
2019-01-26T01:40:29.484Z,-3.80
2019-01-26T01:47:54.084Z,-3.70
2019-01-26T01:50:22.764Z,-3.70
2019-01-26T01:52:51.174Z,-3.60
2019-01-26T01:55:19.609Z,-3.60
2019-01-26T01:57:47.988Z,-3.50
2019-01-26T02:02:46.016Z,-3.40
2019-01-26T02:05:14.431Z,-3.50
2019-01-26T02:07:42.903Z,-3.40
2019-01-26T02:10:14.448Z,-3.40
2019-01-26T02:12:42.855Z,-3.30
2019-01-26T02:15:12.391Z,-3.40
2019-01-26T02:17:41.125Z,-3.40
2019-01-26T02:22:42.004Z,-3.40
2019-01-26T02:27:38.752Z,-3.40
2019-01-26T02:30:10.467Z,-3.40
2019-01-26T02:32:38.879Z,-3.30
2019-01-26T02:35:07.861Z,-3.20
2019-01-26T02:37:36.268Z,-3.10
2019-01-26T02:40:08.008Z,-3.10
2019-01-26T02:42:36.425Z,-3.10
2019-01-26T02:45:07.065Z,-3.10
2019-01-26T02:47:35.480Z,-3.10
2019-01-26T02:50:06.015Z,-3.10
2019-01-26T02:52:34.421Z,-3.10
2019-01-26T02:55:02.819Z,-3.10
2019-01-26T02:57:31.234Z,-3.10
2019-01-26T02:59:59.628Z,-3.10
2019-01-26T03:02:28.335Z,-3.10
2019-01-26T03:04:56.736Z,-3.00
2019-01-26T03:07:25.212Z,-3.00
2019-01-26T03:09:53.607Z,-3.00
2019-01-26T03:12:22.017Z,-2.90
2019-01-26T03:14:50.411Z,-2.90
2019-01-26T03:17:18.832Z,-2.90
2019-01-26T03:19:47.217Z,-2.90
2019-01-26T03:22:15.644Z,-2.90
2019-01-26T03:24:44.045Z,-2.90
2019-01-26T03:27:12.452Z,-2.90
2019-01-26T03:32:08.948Z,-2.70
2019-01-26T03:34:37.336Z,-2.70
2019-01-26T03:37:05.760Z,-2.70
2019-01-26T03:39:34.167Z,-2.70
2019-01-26T03:42:02.583Z,-2.70
2019-01-26T03:44:30.984Z,-2.70
2019-01-26T03:46:59.405Z,-2.60
2019-01-26T03:49:27.821Z,-2.60
2019-01-26T03:51:56.219Z,-2.60
2019-01-26T03:54:24.897Z,-2.60
2019-01-26T03:56:53.570Z,-2.50
2019-01-26T03:59:21.984Z,-2.50
2019-01-26T04:01:50.427Z,-2.50
2019-01-26T04:04:18.967Z,-2.50
2019-01-26T04:09:15.452Z,-2.40
2019-01-26T04:14:11.948Z,-2.30
2019-01-26T04:16:40.354Z,-2.30
2019-01-26T04:19:08.788Z,-2.20
2019-01-26T04:21:37.202Z,-2.20
2019-01-26T04:24:05.669Z,-2.10
2019-01-26T04:26:34.072Z,-2.10
2019-01-26T04:29:02.533Z,-2.10
2019-01-26T04:31:30.924Z,-2.00
2019-01-26T04:33:59.351Z,-2.00
2019-01-26T04:36:27.749Z,-2.00
2019-01-26T04:38:56.181Z,-2.00
2019-01-26T04:41:24.582Z,-1.90
2019-01-26T04:43:52.989Z,-1.90
2019-01-26T04:48:49.540Z,-1.80
2019-01-26T04:51:17.946Z,-1.70
2019-01-26T04:53:46.364Z,-1.70
2019-01-26T04:56:14.771Z,-1.70
2019-01-26T04:58:43.236Z,-1.60
2019-01-26T05:01:11.639Z,-1.60
2019-01-26T05:03:40.056Z,-1.60
2019-01-26T05:06:08.459Z,-1.60
2019-01-26T05:08:37.028Z,-1.50
2019-01-26T05:11:05.442Z,-1.40
2019-01-26T05:13:33.845Z,-1.40
2019-01-26T05:16:02.240Z,-1.40
2019-01-26T05:18:30.640Z,-1.40
2019-01-26T05:20:59.066Z,-1.30
2019-01-26T05:23:27.473Z,-1.30
2019-01-26T05:30:52.048Z,-1.30
2019-01-26T05:33:20.457Z,-1.30
2019-01-26T05:35:48.865Z,-1.30
2019-01-26T05:38:17.260Z,-1.20
2019-01-26T05:40:45.676Z,-1.30
2019-01-26T05:43:14.076Z,-1.30
2019-01-26T05:45:42.488Z,-1.30
2019-01-26T05:48:10.956Z,-1.30
2019-01-26T05:50:39.390Z,-1.30
2019-01-26T05:53:07.789Z,-1.30
2019-01-26T05:58:04.781Z,-1.30
2019-01-26T06:00:33.648Z,-1.20
2019-01-26T06:03:02.053Z,-1.30
2019-01-26T06:10:26.732Z,-1.30
2019-01-26T06:20:21.287Z,-1.20
2019-01-26T06:22:49.751Z,-1.20
2019-01-26T06:25:19.904Z,-1.20
2019-01-26T06:27:48.607Z,-1.20
2019-01-26T06:30:19.352Z,-1.10
2019-01-26T06:32:47.759Z,-1.10
2019-01-26T06:40:15.081Z,-1.10
2019-01-26T06:42:43.548Z,-1.10
2019-01-26T06:45:14.297Z,-1.00
2019-01-26T06:47:42.872Z,-0.90
2019-01-26T06:50:14.728Z,-0.90
2019-01-26T06:52:43.132Z,-0.90
2019-01-26T06:55:12.291Z,-0.80
2019-01-26T06:57:40.696Z,-0.80
2019-01-26T07:00:29.721Z,-0.70
2019-01-26T07:02:58.122Z,-0.60
2019-01-26T07:05:28.191Z,-0.60
2019-01-26T07:07:56.597Z,-0.50
2019-01-26T07:12:53.087Z,-0.40
2019-01-26T07:15:21.487Z,-0.40
2019-01-26T07:17:49.908Z,-0.40
2019-01-26T07:20:18.875Z,-0.30
2019-01-26T07:22:47.291Z,-0.20
2019-01-26T07:25:15.764Z,-0.20
2019-01-26T07:27:44.169Z,-0.10
2019-01-26T07:30:21.308Z,-0.10
2019-01-26T07:32:49.787Z,0.00
2019-01-26T07:35:18.520Z,0.10
2019-01-26T07:37:46.924Z,0.10
2019-01-26T07:40:20.779Z,0.20
2019-01-26T07:45:18.649Z,0.30
2019-01-26T07:47:47.221Z,0.40
2019-01-26T07:50:21.525Z,0.50
2019-01-26T07:52:49.957Z,0.50
2019-01-26T07:55:18.643Z,0.60
2019-01-26T07:57:47.033Z,0.60
2019-01-26T08:00:21.423Z,0.70
2019-01-26T08:07:46.528Z,0.90
2019-01-26T08:10:17.867Z,1.00
2019-01-26T08:12:46.370Z,1.00
2019-01-26T08:15:17.870Z,1.10
2019-01-26T08:22:43.710Z,1.20
2019-01-26T08:25:12.436Z,1.20
2019-01-26T08:30:11.981Z,1.40
2019-01-26T08:32:40.404Z,1.40
2019-01-26T08:35:09.184Z,1.50
2019-01-26T08:37:37.592Z,1.50
2019-01-26T08:40:11.512Z,1.60
2019-01-26T08:45:11.323Z,1.70
2019-01-26T08:47:39.996Z,1.70
2019-01-26T08:50:13.984Z,1.70
2019-01-26T08:52:42.667Z,1.80
2019-01-26T08:57:41.525Z,1.80
2019-01-26T09:00:17.259Z,1.80
2019-01-26T09:02:53.648Z,1.90
2019-01-26T09:05:24.325Z,1.90
2019-01-26T09:07:52.720Z,2.00
2019-01-26T09:10:21.143Z,2.00
2019-01-26T09:15:17.604Z,2.00
2019-01-26T09:20:16.238Z,2.10
2019-01-26T09:22:44.902Z,2.10
2019-01-26T09:25:14.148Z,2.10
2019-01-26T09:27:42.716Z,2.20
2019-01-26T09:30:19.549Z,2.20
2019-01-26T09:32:47.939Z,2.20
2019-01-26T09:35:16.480Z,2.20
2019-01-26T09:37:45.109Z,2.30
2019-01-26T09:40:16.609Z,2.30
2019-01-26T09:42:45.009Z,2.30
2019-01-26T09:45:16.779Z,2.40
2019-01-26T09:47:45.352Z,2.40
2019-01-26T09:50:14.600Z,2.40
2019-01-26T09:57:39.946Z,2.50
2019-01-26T10:00:14.000Z,2.50
2019-01-26T10:02:42.402Z,2.60
2019-01-26T10:05:11.085Z,2.60
2019-01-26T10:10:16.146Z,2.60
2019-01-26T10:12:44.558Z,2.60
2019-01-26T10:15:16.001Z,2.50
2019-01-26T10:17:46.084Z,2.60
2019-01-26T10:20:22.824Z,2.60
2019-01-26T10:22:51.210Z,2.60
2019-01-26T10:25:19.692Z,2.60
2019-01-26T10:27:48.204Z,2.70
2019-01-26T10:30:26.770Z,2.70
2019-01-26T10:32:55.165Z,2.70
2019-01-26T10:35:25.212Z,2.80
2019-01-26T10:37:53.608Z,2.80
2019-01-26T10:40:38.596Z,2.80
2019-01-26T10:43:07.083Z,2.90
2019-01-26T10:48:03.634Z,3.00
2019-01-26T10:53:00.109Z,3.10
2019-01-26T10:55:28.511Z,3.20
2019-01-26T10:57:56.912Z,3.20
2019-01-26T11:00:25.487Z,3.30
2019-01-26T11:02:53.886Z,3.30
2019-01-26T11:07:50.999Z,3.40
2019-01-26T11:10:19.667Z,3.50
2019-01-26T11:12:48.088Z,3.50
2019-01-26T11:17:44.923Z,3.70
2019-01-26T11:20:15.331Z,3.70
2019-01-26T11:22:44.136Z,3.70
2019-01-26T11:25:13.464Z,3.70
2019-01-26T11:27:41.884Z,3.70
2019-01-26T11:30:20.819Z,3.80
2019-01-26T11:32:49.560Z,3.90
2019-01-26T11:35:22.980Z,3.90
2019-01-26T11:37:51.395Z,4.10
2019-01-26T11:42:49.587Z,4.40
2019-01-26T11:50:28.444Z,4.50
2019-01-26T11:52:56.856Z,4.60
2019-01-26T11:57:55.156Z,4.80
2019-01-26T12:00:41.673Z,4.90
2019-01-26T12:03:11.724Z,5.10
2019-01-26T12:05:41.769Z,5.20
2019-01-26T12:08:10.176Z,5.20
2019-01-26T12:13:06.645Z,5.40
2019-01-26T12:15:35.049Z,5.40
2019-01-26T12:18:03.461Z,5.40
2019-01-26T12:22:59.936Z,5.40
2019-01-26T12:25:28.340Z,5.50
2019-01-26T12:27:56.752Z,5.50
2019-01-26T12:30:26.398Z,5.40
2019-01-26T12:32:54.944Z,5.50
2019-01-26T12:35:23.344Z,5.50
2019-01-26T12:37:51.737Z,5.40
2019-01-26T12:40:20.151Z,5.40
2019-01-26T12:42:48.546Z,5.40
2019-01-26T12:45:19.683Z,5.40
2019-01-26T12:47:48.080Z,5.30
2019-01-26T12:50:16.623Z,5.30
2019-01-26T12:52:45.029Z,5.20
2019-01-26T12:57:43.197Z,5.20
2019-01-26T13:00:20.346Z,5.20
2019-01-26T13:05:18.093Z,5.20
2019-01-26T13:07:46.560Z,5.20
2019-01-26T13:10:27.618Z,5.30
2019-01-26T13:12:56.076Z,5.30
2019-01-26T13:17:52.570Z,5.40
2019-01-26T13:20:20.985Z,5.40
2019-01-26T13:27:46.645Z,5.50
2019-01-26T13:30:34.384Z,5.50
2019-01-26T13:33:02.777Z,5.50
2019-01-26T13:35:31.188Z,5.50
2019-01-26T13:37:59.583Z,5.60
2019-01-26T13:40:30.848Z,5.60
2019-01-26T13:45:27.404Z,5.60
2019-01-26T13:47:55.800Z,5.60
2019-01-26T13:50:24.206Z,5.70
2019-01-26T13:52:54.771Z,5.70
2019-01-26T14:00:28.083Z,5.60
2019-01-26T14:02:56.551Z,5.60
2019-01-26T14:05:25.640Z,5.50
2019-01-26T14:07:54.103Z,5.50
2019-01-26T14:10:24.256Z,5.50
2019-01-26T14:12:52.725Z,5.40
2019-01-26T14:15:22.929Z,5.40
2019-01-26T14:17:51.359Z,5.40
2019-01-26T14:20:24.976Z,5.30
2019-01-26T14:22:53.640Z,5.30
2019-01-26T14:30:23.948Z,5.20
2019-01-26T14:32:52.827Z,5.20
2019-01-26T14:35:21.392Z,5.20
2019-01-26T14:37:49.793Z,5.20
2019-01-26T14:40:18.343Z,5.20
2019-01-26T14:47:46.219Z,5.10
2019-01-26T14:50:18.928Z,5.00
2019-01-26T14:55:24.013Z,5.00
2019-01-26T14:57:52.552Z,4.90
2019-01-26T15:00:24.699Z,4.90
2019-01-26T15:02:53.096Z,4.90
2019-01-26T15:05:21.840Z,4.90
2019-01-26T15:10:18.500Z,4.90
2019-01-26T15:12:46.908Z,4.80
2019-01-26T15:15:17.665Z,4.80
2019-01-26T15:17:46.241Z,4.70
2019-01-26T15:20:32.189Z,4.70
2019-01-26T15:23:00.593Z,4.70
2019-01-26T15:27:57.147Z,4.60
2019-01-26T15:32:54.999Z,4.60
2019-01-26T15:35:23.479Z,4.50
2019-01-26T15:37:51.895Z,4.50
2019-01-26T15:40:20.569Z,4.50
2019-01-26T15:42:48.981Z,4.50
2019-01-26T15:45:20.705Z,4.40
2019-01-26T15:47:49.170Z,4.40
2019-01-26T15:50:17.572Z,4.40
2019-01-26T15:52:46.055Z,4.40
2019-01-26T15:55:22.632Z,4.30
2019-01-26T15:58:10.374Z,4.30
2019-01-26T16:03:08.663Z,4.20
2019-01-26T16:05:37.085Z,4.20
2019-01-26T16:08:06.503Z,4.10
2019-01-26T16:10:34.904Z,4.10
2019-01-26T16:13:03.325Z,4.10
2019-01-26T16:15:34.356Z,4.00
2019-01-26T16:18:03.039Z,4.00
2019-01-26T16:20:31.608Z,4.00
2019-01-26T16:23:00.092Z,4.00
2019-01-26T16:25:28.969Z,4.00
2019-01-26T16:27:57.366Z,4.00
2019-01-26T16:30:28.108Z,3.90
2019-01-26T16:32:56.516Z,3.90
2019-01-26T16:35:24.978Z,3.90
2019-01-26T16:37:53.392Z,3.90
2019-01-26T16:40:30.020Z,3.90
2019-01-26T16:42:58.420Z,3.90
2019-01-26T16:45:32.496Z,3.90
2019-01-26T16:48:00.977Z,3.90
2019-01-26T16:50:31.318Z,3.90
2019-01-26T16:55:27.883Z,3.90
2019-01-26T16:57:56.627Z,3.90
2019-01-26T17:03:09.891Z,3.90
2019-01-26T17:05:38.409Z,3.90
2019-01-26T17:08:07.783Z,3.90
2019-01-26T17:10:36.392Z,3.90
2019-01-26T17:13:05.711Z,3.90
2019-01-26T17:15:34.165Z,3.90
2019-01-26T17:18:02.831Z,3.90
2019-01-26T17:20:40.013Z,3.90
2019-01-26T17:23:08.593Z,3.90
2019-01-26T17:25:36.983Z,3.90
2019-01-26T17:28:05.970Z,3.90
2019-01-26T17:30:41.985Z,3.90
2019-01-26T17:33:10.457Z,3.90
2019-01-26T17:35:38.863Z,3.90
2019-01-26T17:38:07.484Z,3.90
2019-01-26T17:40:35.872Z,3.90
2019-01-26T17:43:04.549Z,3.90
2019-01-26T17:45:33.056Z,3.90
2019-01-26T17:50:29.550Z,3.90
2019-01-26T17:55:27.018Z,3.80
2019-01-26T17:57:55.428Z,3.90
2019-01-26T18:00:27.992Z,3.90
2019-01-26T18:02:56.576Z,3.90
2019-01-26T18:07:53.455Z,3.80
2019-01-26T18:12:54.275Z,3.90
2019-01-26T18:17:50.862Z,3.90
2019-01-26T18:22:49.264Z,3.90
2019-01-26T18:25:17.728Z,3.80
2019-01-26T18:27:46.134Z,3.80
2019-01-26T18:32:47.052Z,3.80
2019-01-26T18:40:17.728Z,3.80
2019-01-26T18:45:17.139Z,3.80
2019-01-26T18:47:46.938Z,3.80
2019-01-26T18:50:18.235Z,3.80
2019-01-26T18:52:46.646Z,3.80
2019-01-26T18:55:15.176Z,3.80
2019-01-26T19:02:42.076Z,3.80
2019-01-26T19:05:14.018Z,3.80
2019-01-26T19:07:42.421Z,3.80
2019-01-26T19:10:12.548Z,3.70
2019-01-26T19:12:40.960Z,3.80
2019-01-26T19:15:21.649Z,3.80
2019-01-26T19:17:50.064Z,3.80
2019-01-26T19:20:18.524Z,3.80
2019-01-26T19:25:19.676Z,3.70
2019-01-26T19:27:48.513Z,3.70
2019-01-26T19:30:22.139Z,3.70
2019-01-26T19:32:50.609Z,3.70
2019-01-26T19:35:19.038Z,3.70
2019-01-26T19:37:47.425Z,3.70
2019-01-26T19:45:24.558Z,3.70
2019-01-26T19:47:52.947Z,3.70
2019-01-26T19:50:23.106Z,3.70
2019-01-26T19:52:52.150Z,3.60
2019-01-26T19:55:22.271Z,3.60
2019-01-26T19:57:51.042Z,3.50
2019-01-26T20:00:19.517Z,3.50
2019-01-26T20:02:48.012Z,3.40
2019-01-26T20:05:24.176Z,3.40
2019-01-26T20:07:52.663Z,3.30
2019-01-26T20:10:21.508Z,3.30
2019-01-26T20:17:48.000Z,3.20
2019-01-26T20:20:25.698Z,3.20
2019-01-26T20:22:54.096Z,3.20
2019-01-26T20:27:50.713Z,3.10
2019-01-26T20:30:25.165Z,3.10
2019-01-26T20:32:53.823Z,3.10
2019-01-26T20:35:22.485Z,3.00
2019-01-26T20:37:50.876Z,3.00
2019-01-26T20:40:19.824Z,3.00
2019-01-26T20:45:19.608Z,3.10
2019-01-26T20:50:16.253Z,3.00
2019-01-26T20:57:41.385Z,2.90
2019-01-26T21:02:39.394Z,2.90
2019-01-26T21:05:10.136Z,2.90
2019-01-26T21:07:38.909Z,2.80
2019-01-26T21:12:36.997Z,2.80
2019-01-26T21:15:08.161Z,2.70
2019-01-26T21:17:36.556Z,2.70
2019-01-26T21:20:08.045Z,2.70
2019-01-26T21:22:36.436Z,2.70
2019-01-26T21:27:34.454Z,2.70
2019-01-26T21:30:02.857Z,2.60
2019-01-26T21:34:59.511Z,2.60
2019-01-26T21:37:27.903Z,2.50
2019-01-26T21:44:52.521Z,2.40
2019-01-26T21:47:20.932Z,2.40
2019-01-26T21:52:17.600Z,2.40
2019-01-26T21:57:14.090Z,2.40
2019-01-26T22:02:10.552Z,2.30
2019-01-26T22:07:07.049Z,2.20
2019-01-26T22:09:35.445Z,2.20
2019-01-26T22:12:04.612Z,2.20
2019-01-26T22:14:33.004Z,2.10
2019-01-26T22:17:01.409Z,2.00
2019-01-26T22:19:29.810Z,2.00
2019-01-26T22:21:58.216Z,1.80
2019-01-26T22:24:26.612Z,1.60
2019-01-26T22:26:55.036Z,1.50
2019-01-26T22:29:23.432Z,1.40
2019-01-26T22:31:51.843Z,1.40
2019-01-26T22:34:20.244Z,1.40
2019-01-26T22:36:48.655Z,1.50
2019-01-26T22:39:36.396Z,1.40
2019-01-26T22:42:05.138Z,1.50
2019-01-26T22:47:01.611Z,1.40
2019-01-26T22:49:30.008Z,1.40
2019-01-26T22:51:58.413Z,1.50
2019-01-26T22:54:26.809Z,1.40
2019-01-26T22:56:55.211Z,1.40
2019-01-26T22:59:23.599Z,1.30
2019-01-26T23:01:52.371Z,1.30
2019-01-26T23:04:47.332Z,1.20
2019-01-26T23:09:54.164Z,1.30
2019-01-26T23:12:30.122Z,1.30
2019-01-26T23:15:19.635Z,1.20
2019-01-26T23:18:03.145Z,1.20
2019-01-26T23:20:34.622Z,1.10
2019-01-26T23:23:14.802Z,1.10
2019-01-26T23:31:14.443Z,1.00
2019-01-26T23:33:43.584Z,0.90
2019-01-26T23:36:12.413Z,1.00
2019-01-26T23:46:05.471Z,1.00
2019-01-26T23:48:34.220Z,0.90
2019-01-26T23:51:02.623Z,1.00
2019-01-26T23:53:31.028Z,1.00
2019-01-26T23:56:02.536Z,0.90
